sensor_id;sensor_type;location;lat;lon;timestamp;P1;durP1;ratioP1;P2;durP2;ratioP2
45338;SDS011;31071;51.478;5.710;2024-01-27T07:30:04;36.15;;;12.52;;
45338;SDS011;31071;51.478;5.710;2024-01-27T09:41:16;23.08;;;9.57;;
45338;SDS011;31071;51.478;5.710;2024-01-27T10:18:04;20.17;;;8.80;;
45338;SDS011;31071;51.478;5.710;2024-01-27T10:50:42;24.38;;;9.60;;
45338;SDS011;31071;51.478;5.710;2024-01-27T10:53:17;25.48;;;9.40;;
45338;SDS011;31071;51.478;5.710;2024-01-27T10:55:56;24.50;;;9.80;;
45338;SDS011;31071;51.478;5.710;2024-01-27T10:58:25;20.42;;;8.25;;
45338;SDS011;31071;51.478;5.710;2024-01-27T11:00:55;25.05;;;9.82;;
45338;SDS011;31071;51.478;5.710;2024-01-27T11:03:38;22.58;;;9.57;;
45338;SDS011;31071;51.478;5.710;2024-01-27T11:06:08;20.85;;;8.95;;
45338;SDS011;31071;51.478;5.710;2024-01-27T11:08:46;21.17;;;8.63;;
45338;SDS011;31071;51.478;5.710;2024-01-27T11:11:14;22.67;;;8.85;;
45338;SDS011;31071;51.478;5.710;2024-01-27T11:13:40;19.10;;;8.30;;
45338;SDS011;31071;51.478;5.710;2024-01-27T11:16:16;19.17;;;7.65;;
45338;SDS011;31071;51.478;5.710;2024-01-27T11:18:44;22.63;;;7.10;;
45338;SDS011;31071;51.478;5.710;2024-01-27T11:21:16;24.58;;;7.93;;
45338;SDS011;31071;51.478;5.710;2024-01-27T11:23:42;29.55;;;8.00;;
45338;SDS011;31071;51.478;5.710;2024-01-27T11:26:09;18.02;;;7.30;;
45338;SDS011;31071;51.478;5.710;2024-01-27T11:28:39;21.10;;;6.40;;
45338;SDS011;31071;51.478;5.710;2024-01-27T11:31:06;18.20;;;6.15;;
45338;SDS011;31071;51.478;5.710;2024-01-27T11:33:32;24.55;;;5.97;;
45338;SDS011;31071;51.478;5.710;2024-01-27T11:36:05;16.63;;;4.63;;
45338;SDS011;31071;51.478;5.710;2024-01-27T11:38:31;17.00;;;4.70;;
45338;SDS011;31071;51.478;5.710;2024-01-27T11:40:57;15.88;;;4.68;;
45338;SDS011;31071;51.478;5.710;2024-01-27T11:43:24;13.85;;;4.53;;
45338;SDS011;31071;51.478;5.710;2024-01-27T11:46:00;16.80;;;5.32;;
45338;SDS011;31071;51.478;5.710;2024-01-27T11:48:27;17.20;;;5.32;;
45338;SDS011;31071;51.478;5.710;2024-01-27T11:51:03;17.63;;;5.68;;
45338;SDS011;31071;51.478;5.710;2024-01-27T11:53:36;23.33;;;6.68;;
45338;SDS011;31071;51.478;5.710;2024-01-27T11:56:04;19.88;;;4.45;;
45338;SDS011;31071;51.478;5.710;2024-01-27T11:58:30;20.63;;;6.97;;
45338;SDS011;31071;51.478;5.710;2024-01-27T12:00:57;13.60;;;5.35;;
45338;SDS011;31071;51.478;5.710;2024-01-27T12:03:25;12.27;;;4.68;;
45338;SDS011;31071;51.478;5.710;2024-01-27T12:05:52;19.25;;;6.15;;
45338;SDS011;31071;51.478;5.710;2024-01-27T12:08:19;17.85;;;5.50;;
45338;SDS011;31071;51.478;5.710;2024-01-27T12:10:45;18.55;;;6.70;;
45338;SDS011;31071;51.478;5.710;2024-01-27T12:13:11;22.73;;;8.50;;
45338;SDS011;31071;51.478;5.710;2024-01-27T12:15:39;15.18;;;5.55;;
45338;SDS011;31071;51.478;5.710;2024-01-27T12:18:05;18.17;;;5.45;;
45338;SDS011;31071;51.478;5.710;2024-01-27T12:20:34;18.27;;;6.30;;
45338;SDS011;31071;51.478;5.710;2024-01-27T12:23:04;24.85;;;10.55;;
45338;SDS011;31071;51.478;5.710;2024-01-27T12:25:31;20.30;;;6.30;;
45338;SDS011;31071;51.478;5.710;2024-01-27T12:27:56;19.60;;;4.90;;
45338;SDS011;31071;51.478;5.710;2024-01-27T12:30:34;31.38;;;10.30;;
45338;SDS011;31071;51.478;5.710;2024-01-27T12:33:01;15.43;;;7.20;;
45338;SDS011;31071;51.478;5.710;2024-01-27T12:35:40;24.10;;;6.57;;
45338;SDS011;31071;51.478;5.710;2024-01-27T12:38:13;17.48;;;5.00;;
45338;SDS011;31071;51.478;5.710;2024-01-27T12:40:39;23.67;;;6.80;;
45338;SDS011;31071;51.478;5.710;2024-01-27T12:43:14;15.48;;;5.35;;
45338;SDS011;31071;51.478;5.710;2024-01-27T12:45:43;17.80;;;5.82;;
45338;SDS011;31071;51.478;5.710;2024-01-27T12:48:14;17.50;;;6.28;;
45338;SDS011;31071;51.478;5.710;2024-01-27T12:50:55;24.92;;;7.35;;
45338;SDS011;31071;51.478;5.710;2024-01-27T12:53:31;15.85;;;6.72;;
45338;SDS011;31071;51.478;5.710;2024-01-27T12:56:06;14.80;;;3.70;;
45338;SDS011;31071;51.478;5.710;2024-01-27T12:59:03;17.13;;;5.68;;
45338;SDS011;31071;51.478;5.710;2024-01-27T13:01:30;17.38;;;4.32;;
45338;SDS011;31071;51.478;5.710;2024-01-27T13:04:26;21.17;;;6.40;;
45338;SDS011;31071;51.478;5.710;2024-01-27T13:07:08;25.13;;;10.88;;
45338;SDS011;31071;51.478;5.710;2024-01-27T13:09:35;31.08;;;12.85;;
45338;SDS011;31071;51.478;5.710;2024-01-27T13:12:02;43.47;;;16.63;;
45338;SDS011;31071;51.478;5.710;2024-01-27T13:14:32;55.78;;;26.10;;
45338;SDS011;31071;51.478;5.710;2024-01-27T13:16:59;43.40;;;19.63;;
45338;SDS011;31071;51.478;5.710;2024-01-27T13:19:32;20.10;;;4.15;;
45338;SDS011;31071;51.478;5.710;2024-01-27T13:22:00;22.77;;;6.88;;
45338;SDS011;31071;51.478;5.710;2024-01-27T13:24:43;23.77;;;9.73;;
45338;SDS011;31071;51.478;5.710;2024-01-27T13:27:10;19.23;;;6.25;;
45338;SDS011;31071;51.478;5.710;2024-01-27T13:29:36;36.05;;;12.70;;
45338;SDS011;31071;51.478;5.710;2024-01-27T13:32:02;16.90;;;4.68;;
45338;SDS011;31071;51.478;5.710;2024-01-27T13:34:28;17.95;;;8.63;;
45338;SDS011;31071;51.478;5.710;2024-01-27T13:36:55;23.77;;;10.55;;
45338;SDS011;31071;51.478;5.710;2024-01-27T13:39:53;15.40;;;3.95;;
45338;SDS011;31071;51.478;5.710;2024-01-27T13:45:26;16.27;;;3.83;;
45338;SDS011;31071;51.478;5.710;2024-01-27T13:48:14;13.77;;;4.43;;
45338;SDS011;31071;51.478;5.710;2024-01-27T13:50:41;17.33;;;4.20;;
45338;SDS011;31071;51.478;5.710;2024-01-27T13:53:28;12.05;;;4.60;;
45338;SDS011;31071;51.478;5.710;2024-01-27T13:56:02;14.52;;;4.45;;
45338;SDS011;31071;51.478;5.710;2024-01-27T13:58:29;11.95;;;4.53;;
45338;SDS011;31071;51.478;5.710;2024-01-27T14:00:59;15.23;;;3.75;;
45338;SDS011;31071;51.478;5.710;2024-01-27T14:03:25;13.73;;;4.05;;
45338;SDS011;31071;51.478;5.710;2024-01-27T14:06:02;15.13;;;3.83;;
45338;SDS011;31071;51.478;5.710;2024-01-27T14:08:36;9.20;;;3.70;;
45338;SDS011;31071;51.478;5.710;2024-01-27T14:11:15;13.73;;;3.55;;
45338;SDS011;31071;51.478;5.710;2024-01-27T14:13:41;12.82;;;3.42;;
45338;SDS011;31071;51.478;5.710;2024-01-27T14:16:21;11.75;;;3.00;;
45338;SDS011;31071;51.478;5.710;2024-01-27T14:18:52;12.00;;;3.25;;
45338;SDS011;31071;51.478;5.710;2024-01-27T14:21:18;12.93;;;4.18;;
45338;SDS011;31071;51.478;5.710;2024-01-27T14:29:13;11.38;;;3.90;;
45338;SDS011;31071;51.478;5.710;2024-01-27T14:39:24;16.60;;;3.50;;
45338;SDS011;31071;51.478;5.710;2024-01-27T15:10:07;13.93;;;3.67;;
45338;SDS011;31071;51.478;5.710;2024-01-27T15:16:10;15.80;;;4.13;;
45338;SDS011;31071;51.478;5.710;2024-01-27T15:19:32;8.48;;;3.63;;
45338;SDS011;31071;51.478;5.710;2024-01-27T15:21:59;15.40;;;3.95;;
45338;SDS011;31071;51.478;5.710;2024-01-27T15:24:26;10.93;;;3.70;;
45338;SDS011;31071;51.478;5.710;2024-01-27T15:26:52;11.75;;;3.70;;
45338;SDS011;31071;51.478;5.710;2024-01-27T15:29:18;13.25;;;4.18;;
45338;SDS011;31071;51.478;5.710;2024-01-27T15:31:45;10.20;;;3.85;;
45338;SDS011;31071;51.478;5.710;2024-01-27T15:34:11;13.75;;;4.55;;
45338;SDS011;31071;51.478;5.710;2024-01-27T15:36:46;15.10;;;4.20;;
45338;SDS011;31071;51.478;5.710;2024-01-27T15:39:12;12.43;;;5.03;;
45338;SDS011;31071;51.478;5.710;2024-01-27T15:41:40;13.65;;;4.35;;
45338;SDS011;31071;51.478;5.710;2024-01-27T15:44:15;16.57;;;4.90;;
45338;SDS011;31071;51.478;5.710;2024-01-27T15:46:41;9.88;;;4.13;;
45338;SDS011;31071;51.478;5.710;2024-01-27T15:49:07;15.25;;;4.05;;
45338;SDS011;31071;51.478;5.710;2024-01-27T15:51:34;17.50;;;4.57;;
45338;SDS011;31071;51.478;5.710;2024-01-27T15:54:02;15.48;;;4.68;;
45338;SDS011;31071;51.478;5.710;2024-01-27T15:56:29;11.27;;;3.78;;
45338;SDS011;31071;51.478;5.710;2024-01-27T15:59:03;14.60;;;4.18;;
45338;SDS011;31071;51.478;5.710;2024-01-27T16:01:28;14.65;;;4.70;;
45338;SDS011;31071;51.478;5.710;2024-01-27T16:03:54;16.95;;;5.10;;
45338;SDS011;31071;51.478;5.710;2024-01-27T16:06:20;16.45;;;5.22;;
45338;SDS011;31071;51.478;5.710;2024-01-27T16:08:49;19.50;;;4.40;;
45338;SDS011;31071;51.478;5.710;2024-01-27T16:11:16;20.42;;;5.65;;
45338;SDS011;31071;51.478;5.710;2024-01-27T16:13:44;18.92;;;6.47;;
45338;SDS011;31071;51.478;5.710;2024-01-27T16:16:13;15.05;;;6.03;;
45338;SDS011;31071;51.478;5.710;2024-01-27T16:18:39;14.80;;;6.70;;
45338;SDS011;31071;51.478;5.710;2024-01-27T16:21:04;21.92;;;8.35;;
45338;SDS011;31071;51.478;5.710;2024-01-27T16:23:30;21.52;;;8.52;;
45338;SDS011;31071;51.478;5.710;2024-01-27T16:25:56;16.40;;;6.78;;
45338;SDS011;31071;51.478;5.710;2024-01-27T16:28:30;21.33;;;7.00;;
45338;SDS011;31071;51.478;5.710;2024-01-27T16:31:03;19.77;;;7.22;;
45338;SDS011;31071;51.478;5.710;2024-01-27T16:36:06;19.63;;;6.43;;
45338;SDS011;31071;51.478;5.710;2024-01-27T16:38:34;15.82;;;6.60;;
45338;SDS011;31071;51.478;5.710;2024-01-27T16:41:00;17.25;;;7.15;;
45338;SDS011;31071;51.478;5.710;2024-01-27T16:43:30;16.33;;;5.78;;
45338;SDS011;31071;51.478;5.710;2024-01-27T16:45:57;16.33;;;5.88;;
45338;SDS011;31071;51.478;5.710;2024-01-27T16:48:25;12.40;;;5.00;;
45338;SDS011;31071;51.478;5.710;2024-01-27T16:50:50;12.70;;;4.50;;
45338;SDS011;31071;51.478;5.710;2024-01-27T16:53:16;13.73;;;4.50;;
45338;SDS011;31071;51.478;5.710;2024-01-27T16:55:44;13.98;;;4.57;;
45338;SDS011;31071;51.478;5.710;2024-01-27T16:58:12;22.65;;;7.35;;
45338;SDS011;31071;51.478;5.710;2024-01-27T17:01:03;15.05;;;7.80;;
45338;SDS011;31071;51.478;5.710;2024-01-27T17:03:29;15.55;;;7.93;;
45338;SDS011;31071;51.478;5.710;2024-01-27T17:05:55;21.95;;;8.63;;
45338;SDS011;31071;51.478;5.710;2024-01-27T17:08:21;20.10;;;6.97;;
45338;SDS011;31071;51.478;5.710;2024-01-27T17:10:48;12.00;;;6.93;;
45338;SDS011;31071;51.478;5.710;2024-01-27T17:13:14;14.93;;;5.72;;
45338;SDS011;31071;51.478;5.710;2024-01-27T17:15:41;13.70;;;5.78;;
45338;SDS011;31071;51.478;5.710;2024-01-27T17:18:07;19.08;;;6.88;;
45338;SDS011;31071;51.478;5.710;2024-01-27T17:20:34;12.10;;;6.20;;
45338;SDS011;31071;51.478;5.710;2024-01-27T17:23:00;18.08;;;5.72;;
45338;SDS011;31071;51.478;5.710;2024-01-27T17:25:26;12.02;;;5.68;;
45338;SDS011;31071;51.478;5.710;2024-01-27T17:27:51;10.60;;;6.00;;
45338;SDS011;31071;51.478;5.710;2024-01-27T17:30:17;15.43;;;5.38;;
45338;SDS011;31071;51.478;5.710;2024-01-27T17:32:43;15.95;;;5.30;;
45338;SDS011;31071;51.478;5.710;2024-01-27T17:35:09;16.17;;;5.28;;
45338;SDS011;31071;51.478;5.710;2024-01-27T17:37:35;15.57;;;5.60;;
45338;SDS011;31071;51.478;5.710;2024-01-27T17:40:04;14.32;;;6.40;;
45338;SDS011;31071;51.478;5.710;2024-01-27T17:42:32;10.77;;;4.50;;
45338;SDS011;31071;51.478;5.710;2024-01-27T17:44:59;9.38;;;4.20;;
45338;SDS011;31071;51.478;5.710;2024-01-27T17:47:25;15.00;;;5.18;;
45338;SDS011;31071;51.478;5.710;2024-01-27T17:49:50;13.00;;;4.65;;
45338;SDS011;31071;51.478;5.710;2024-01-27T17:52:22;15.90;;;4.50;;
45338;SDS011;31071;51.478;5.710;2024-01-27T17:54:49;16.80;;;4.65;;
45338;SDS011;31071;51.478;5.710;2024-01-27T17:57:20;12.73;;;4.50;;
45338;SDS011;31071;51.478;5.710;2024-01-27T17:59:45;12.00;;;4.55;;
45338;SDS011;31071;51.478;5.710;2024-01-27T18:02:14;13.93;;;4.30;;
45338;SDS011;31071;51.478;5.710;2024-01-27T18:04:41;17.00;;;5.20;;
45338;SDS011;31071;51.478;5.710;2024-01-27T18:07:07;11.75;;;5.15;;
45338;SDS011;31071;51.478;5.710;2024-01-27T18:09:33;19.95;;;7.00;;
45338;SDS011;31071;51.478;5.710;2024-01-27T18:15:37;17.25;;;6.38;;
45338;SDS011;31071;51.478;5.710;2024-01-27T18:19:08;14.15;;;6.47;;
45338;SDS011;31071;51.478;5.710;2024-01-27T18:21:45;17.20;;;6.80;;
45338;SDS011;31071;51.478;5.710;2024-01-27T18:24:10;18.50;;;8.13;;
45338;SDS011;31071;51.478;5.710;2024-01-27T18:26:36;20.38;;;9.02;;
45338;SDS011;31071;51.478;5.710;2024-01-27T18:29:02;17.73;;;9.15;;
45338;SDS011;31071;51.478;5.710;2024-01-27T18:31:27;33.45;;;12.70;;
45338;SDS011;31071;51.478;5.710;2024-01-27T18:33:53;27.27;;;13.13;;
45338;SDS011;31071;51.478;5.710;2024-01-27T18:36:19;28.58;;;14.65;;
45338;SDS011;31071;51.478;5.710;2024-01-27T18:38:46;39.40;;;23.98;;
45338;SDS011;31071;51.478;5.710;2024-01-27T18:41:13;42.80;;;24.00;;
45338;SDS011;31071;51.478;5.710;2024-01-27T18:43:40;32.53;;;15.65;;
45338;SDS011;31071;51.478;5.710;2024-01-27T18:46:07;26.50;;;12.82;;
45338;SDS011;31071;51.478;5.710;2024-01-27T18:48:36;28.50;;;13.13;;
45338;SDS011;31071;51.478;5.710;2024-01-27T18:51:03;24.15;;;11.77;;
45338;SDS011;31071;51.478;5.710;2024-01-27T18:53:32;19.60;;;10.68;;
45338;SDS011;31071;51.478;5.710;2024-01-27T18:56:01;23.33;;;11.93;;
45338;SDS011;31071;51.478;5.710;2024-01-27T18:58:31;23.17;;;10.77;;
45338;SDS011;31071;51.478;5.710;2024-01-27T19:00:58;23.27;;;10.85;;
45338;SDS011;31071;51.478;5.710;2024-01-27T19:03:23;27.80;;;12.40;;
45338;SDS011;31071;51.478;5.710;2024-01-27T19:05:49;25.75;;;11.65;;
45338;SDS011;31071;51.478;5.710;2024-01-27T19:08:15;26.35;;;12.88;;
45338;SDS011;31071;51.478;5.710;2024-01-27T19:10:41;27.27;;;12.38;;
45338;SDS011;31071;51.478;5.710;2024-01-27T19:13:22;23.00;;;13.13;;
45338;SDS011;31071;51.478;5.710;2024-01-27T19:15:51;24.52;;;11.20;;
45338;SDS011;31071;51.478;5.710;2024-01-27T19:18:20;22.65;;;10.52;;
45338;SDS011;31071;51.478;5.710;2024-01-27T19:20:49;21.65;;;10.15;;
45338;SDS011;31071;51.478;5.710;2024-01-27T19:23:16;18.60;;;8.98;;
45338;SDS011;31071;51.478;5.710;2024-01-27T19:25:42;17.15;;;7.60;;
45338;SDS011;31071;51.478;5.710;2024-01-27T19:28:08;15.13;;;6.90;;
45338;SDS011;31071;51.478;5.710;2024-01-27T19:30:34;16.65;;;6.55;;
45338;SDS011;31071;51.478;5.710;2024-01-27T19:32:59;16.70;;;6.10;;
45338;SDS011;31071;51.478;5.710;2024-01-27T19:35:28;17.83;;;6.65;;
45338;SDS011;31071;51.478;5.710;2024-01-27T19:37:54;12.52;;;5.97;;
45338;SDS011;31071;51.478;5.710;2024-01-27T19:40:20;18.80;;;5.85;;
45338;SDS011;31071;51.478;5.710;2024-01-27T19:42:45;15.80;;;5.43;;
45338;SDS011;31071;51.478;5.710;2024-01-27T19:45:13;17.77;;;6.13;;
45338;SDS011;31071;51.478;5.710;2024-01-27T19:47:39;10.95;;;5.38;;
45338;SDS011;31071;51.478;5.710;2024-01-27T19:50:12;14.32;;;5.53;;
45338;SDS011;31071;51.478;5.710;2024-01-27T19:52:38;16.13;;;5.63;;
45338;SDS011;31071;51.478;5.710;2024-01-27T19:55:03;16.83;;;5.50;;
45338;SDS011;31071;51.478;5.710;2024-01-27T19:57:31;12.02;;;5.50;;
45338;SDS011;31071;51.478;5.710;2024-01-27T19:59:56;15.57;;;6.32;;
45338;SDS011;31071;51.478;5.710;2024-01-27T20:02:22;13.82;;;5.95;;
45338;SDS011;31071;51.478;5.710;2024-01-27T20:05:03;18.60;;;5.85;;
45338;SDS011;31071;51.478;5.710;2024-01-27T20:07:47;18.30;;;6.57;;
45338;SDS011;31071;51.478;5.710;2024-01-27T20:10:13;13.05;;;6.45;;
45338;SDS011;31071;51.478;5.710;2024-01-27T20:12:38;11.23;;;6.10;;
45338;SDS011;31071;51.478;5.710;2024-01-27T20:15:06;16.23;;;6.20;;
45338;SDS011;31071;51.478;5.710;2024-01-27T20:17:33;13.07;;;6.65;;
45338;SDS011;31071;51.478;5.710;2024-01-27T20:19:59;14.52;;;8.10;;
45338;SDS011;31071;51.478;5.710;2024-01-27T20:22:27;15.00;;;7.88;;
45338;SDS011;31071;51.478;5.710;2024-01-27T20:24:53;20.42;;;8.98;;
45338;SDS011;31071;51.478;5.710;2024-01-27T20:27:21;14.73;;;7.68;;
45338;SDS011;31071;51.478;5.710;2024-01-27T20:29:46;17.52;;;7.78;;
45338;SDS011;31071;51.478;5.710;2024-01-27T20:32:12;20.88;;;10.05;;
45338;SDS011;31071;51.478;5.710;2024-01-27T20:34:38;19.38;;;9.18;;
45338;SDS011;31071;51.478;5.710;2024-01-27T20:37:04;18.10;;;8.90;;
45338;SDS011;31071;51.478;5.710;2024-01-27T20:39:30;17.33;;;9.05;;
45338;SDS011;31071;51.478;5.710;2024-01-27T20:41:56;20.98;;;9.85;;
45338;SDS011;31071;51.478;5.710;2024-01-27T20:44:22;18.83;;;9.63;;
45338;SDS011;31071;51.478;5.710;2024-01-27T20:46:48;23.98;;;10.55;;
45338;SDS011;31071;51.478;5.710;2024-01-27T20:49:17;17.92;;;9.38;;
45338;SDS011;31071;51.478;5.710;2024-01-27T20:51:44;22.45;;;8.88;;
45338;SDS011;31071;51.478;5.710;2024-01-27T20:54:13;19.70;;;8.25;;
45338;SDS011;31071;51.478;5.710;2024-01-27T20:56:38;18.27;;;8.68;;
45338;SDS011;31071;51.478;5.710;2024-01-27T20:59:04;19.02;;;9.05;;
45338;SDS011;31071;51.478;5.710;2024-01-27T21:01:29;23.00;;;10.15;;
45338;SDS011;31071;51.478;5.710;2024-01-27T21:04:04;27.27;;;14.70;;
45338;SDS011;31071;51.478;5.710;2024-01-27T21:06:30;35.72;;;18.23;;
45338;SDS011;31071;51.478;5.710;2024-01-27T21:08:56;35.58;;;19.73;;
45338;SDS011;31071;51.478;5.710;2024-01-27T21:11:22;36.90;;;17.67;;
45338;SDS011;31071;51.478;5.710;2024-01-27T21:13:48;33.13;;;15.93;;
45338;SDS011;31071;51.478;5.710;2024-01-27T21:16:15;31.17;;;14.45;;
45338;SDS011;31071;51.478;5.710;2024-01-27T21:18:40;29.92;;;14.57;;
45338;SDS011;31071;51.478;5.710;2024-01-27T21:21:06;37.85;;;21.75;;
45338;SDS011;31071;51.478;5.710;2024-01-27T21:23:32;39.90;;;20.48;;
45338;SDS011;31071;51.478;5.710;2024-01-27T21:25:59;38.72;;;19.33;;
45338;SDS011;31071;51.478;5.710;2024-01-27T21:28:24;32.70;;;15.90;;
45338;SDS011;31071;51.478;5.710;2024-01-27T21:30:50;34.78;;;16.13;;
45338;SDS011;31071;51.478;5.710;2024-01-27T21:33:16;30.75;;;15.10;;
45338;SDS011;31071;51.478;5.710;2024-01-27T21:35:42;28.48;;;12.80;;
45338;SDS011;31071;51.478;5.710;2024-01-27T21:38:08;28.92;;;12.73;;
45338;SDS011;31071;51.478;5.710;2024-01-27T21:40:34;23.73;;;11.32;;
45338;SDS011;31071;51.478;5.710;2024-01-27T21:43:02;22.52;;;11.02;;
45338;SDS011;31071;51.478;5.710;2024-01-27T21:45:31;24.65;;;11.77;;
45338;SDS011;31071;51.478;5.710;2024-01-27T21:47:57;22.40;;;11.57;;
45338;SDS011;31071;51.478;5.710;2024-01-27T21:50:25;20.35;;;9.70;;
45338;SDS011;31071;51.478;5.710;2024-01-27T21:52:51;21.17;;;10.25;;
45338;SDS011;31071;51.478;5.710;2024-01-27T21:55:17;24.60;;;9.90;;
45338;SDS011;31071;51.478;5.710;2024-01-27T21:57:42;18.65;;;10.65;;
45338;SDS011;31071;51.478;5.710;2024-01-27T22:00:11;24.40;;;12.20;;
45338;SDS011;31071;51.478;5.710;2024-01-27T22:02:37;21.63;;;11.68;;
45338;SDS011;31071;51.478;5.710;2024-01-27T22:05:04;19.83;;;10.52;;
45338;SDS011;31071;51.478;5.710;2024-01-27T22:07:30;22.60;;;10.48;;
45338;SDS011;31071;51.478;5.710;2024-01-27T22:09:56;19.13;;;11.27;;
45338;SDS011;31071;51.478;5.710;2024-01-27T22:12:24;25.58;;;10.38;;
45338;SDS011;31071;51.478;5.710;2024-01-27T22:14:49;25.60;;;11.05;;
45338;SDS011;31071;51.478;5.710;2024-01-27T22:17:15;22.83;;;10.82;;
45338;SDS011;31071;51.478;5.710;2024-01-27T22:19:47;24.20;;;9.95;;
45338;SDS011;31071;51.478;5.710;2024-01-27T22:22:12;19.50;;;9.80;;
45338;SDS011;31071;51.478;5.710;2024-01-27T22:24:38;24.38;;;10.50;;
45338;SDS011;31071;51.478;5.710;2024-01-27T22:27:04;23.27;;;9.98;;
45338;SDS011;31071;51.478;5.710;2024-01-27T22:29:30;17.98;;;10.30;;
45338;SDS011;31071;51.478;5.710;2024-01-27T22:32:02;21.52;;;10.48;;
45338;SDS011;31071;51.478;5.710;2024-01-27T22:34:29;16.20;;;9.20;;
45338;SDS011;31071;51.478;5.710;2024-01-27T22:36:55;20.40;;;9.75;;
45338;SDS011;31071;51.478;5.710;2024-01-27T22:39:21;14.30;;;8.85;;
45338;SDS011;31071;51.478;5.710;2024-01-27T22:41:47;17.75;;;8.82;;
45338;SDS011;31071;51.478;5.710;2024-01-27T22:44:13;21.05;;;9.07;;
45338;SDS011;31071;51.478;5.710;2024-01-27T22:46:39;24.58;;;12.20;;
45338;SDS011;31071;51.478;5.710;2024-01-27T22:49:06;24.58;;;12.68;;
45338;SDS011;31071;51.478;5.710;2024-01-27T22:51:32;23.30;;;11.40;;
45338;SDS011;31071;51.478;5.710;2024-01-27T22:54:11;25.45;;;12.40;;
45338;SDS011;31071;51.478;5.710;2024-01-27T22:56:36;21.48;;;11.50;;
45338;SDS011;31071;51.478;5.710;2024-01-27T22:59:02;22.20;;;11.30;;
45338;SDS011;31071;51.478;5.710;2024-01-27T23:01:29;21.92;;;11.25;;
45338;SDS011;31071;51.478;5.710;2024-01-27T23:03:56;23.13;;;11.02;;
45338;SDS011;31071;51.478;5.710;2024-01-27T23:06:23;22.33;;;10.88;;
45338;SDS011;31071;51.478;5.710;2024-01-27T23:08:48;25.13;;;10.68;;
45338;SDS011;31071;51.478;5.710;2024-01-27T23:11:15;23.95;;;9.88;;
45338;SDS011;31071;51.478;5.710;2024-01-27T23:13:42;21.85;;;9.50;;
45338;SDS011;31071;51.478;5.710;2024-01-27T23:16:08;19.48;;;9.07;;
45338;SDS011;31071;51.478;5.710;2024-01-27T23:18:37;17.05;;;8.77;;
45338;SDS011;31071;51.478;5.710;2024-01-27T23:21:03;20.20;;;9.85;;
45338;SDS011;31071;51.478;5.710;2024-01-27T23:23:32;24.85;;;11.13;;
45338;SDS011;31071;51.478;5.710;2024-01-27T23:25:58;18.38;;;10.27;;
45338;SDS011;31071;51.478;5.710;2024-01-27T23:28:24;16.65;;;11.15;;
45338;SDS011;31071;51.478;5.710;2024-01-27T23:30:50;22.17;;;11.55;;
45338;SDS011;31071;51.478;5.710;2024-01-27T23:33:17;18.33;;;11.45;;
45338;SDS011;31071;51.478;5.710;2024-01-27T23:35:45;24.35;;;10.77;;
45338;SDS011;31071;51.478;5.710;2024-01-27T23:38:11;22.80;;;10.27;;
45338;SDS011;31071;51.478;5.710;2024-01-27T23:40:39;19.70;;;9.10;;
45338;SDS011;31071;51.478;5.710;2024-01-27T23:43:05;23.00;;;10.00;;
45338;SDS011;31071;51.478;5.710;2024-01-27T23:45:33;23.00;;;9.10;;
45338;SDS011;31071;51.478;5.710;2024-01-27T23:47:59;20.10;;;9.18;;
45338;SDS011;31071;51.478;5.710;2024-01-27T23:50:25;17.33;;;9.23;;
45338;SDS011;31071;51.478;5.710;2024-01-27T23:52:50;21.55;;;9.52;;
45338;SDS011;31071;51.478;5.710;2024-01-27T23:55:17;18.77;;;9.35;;
45338;SDS011;31071;51.478;5.710;2024-01-27T23:57:48;20.92;;;9.40;;
